sensor_id;sensor_type;location;lat;lon;timestamp;pressure;altitude;pressure_sealevel;temperature;humidity
80397;BME280;69721;55.894;-3.052;2023-07-31T00:00:47;99620.03;;;19.54;42.13
80397;BME280;69721;55.894;-3.052;2023-07-31T00:03:12;99618.50;;;19.73;42.63
80397;BME280;69721;55.894;-3.052;2023-07-31T00:05:38;99618.28;;;19.68;42.72
80397;BME280;69721;55.894;-3.052;2023-07-31T00:08:03;99620.13;;;19.13;43.01
80397;BME280;69721;55.894;-3.052;2023-07-31T00:10:29;99616.62;;;18.85;44.07
80397;BME280;69721;55.894;-3.052;2023-07-31T00:12:54;99607.77;;;18.84;44.07
80397;BME280;69721;55.894;-3.052;2023-07-31T00:15:19;99599.29;;;19.09;43.68
80397;BME280;69721;55.894;-3.052;2023-07-31T00:17:45;99600.85;;;19.29;43.54
80397;BME280;69721;55.894;-3.052;2023-07-31T00:20:11;99602.23;;;19.32;43.12
80397;BME280;69721;55.894;-3.052;2023-07-31T00:22:36;99598.39;;;19.92;42.16
80397;BME280;69721;55.894;-3.052;2023-07-31T00:25:01;99597.18;;;20.15;42.29
80397;BME280;69721;55.894;-3.052;2023-07-31T00:27:26;99594.17;;;19.88;42.95
80397;BME280;69721;55.894;-3.052;2023-07-31T00:29:52;99593.69;;;20.09;42.79
80397;BME280;69721;55.894;-3.052;2023-07-31T00:32:17;99588.85;;;20.38;42.13
80397;BME280;69721;55.894;-3.052;2023-07-31T00:34:42;99584.02;;;20.13;42.53
80397;BME280;69721;55.894;-3.052;2023-07-31T00:39:34;99579.61;;;19.46;43.64
80397;BME280;69721;55.894;-3.052;2023-07-31T00:41:58;99573.91;;;19.34;44.06
80397;BME280;69721;55.894;-3.052;2023-07-31T00:44:24;99570.82;;;19.01;44.46
80397;BME280;69721;55.894;-3.052;2023-07-31T00:46:49;99572.08;;;18.88;45.26
80397;BME280;69721;55.894;-3.052;2023-07-31T00:49:15;99572.42;;;19.14;45.92
80397;BME280;69721;55.894;-3.052;2023-07-31T00:51:40;99569.76;;;19.11;45.73
80397;BME280;69721;55.894;-3.052;2023-07-31T00:54:06;99570.34;;;17.95;47.11
80397;BME280;69721;55.894;-3.052;2023-07-31T00:56:31;99567.84;;;18.49;47.72
80397;BME280;69721;55.894;-3.052;2023-07-31T00:58:56;99561.01;;;18.90;46.36
80397;BME280;69721;55.894;-3.052;2023-07-31T01:01:21;99559.00;;;19.28;45.93
80397;BME280;69721;55.894;-3.052;2023-07-31T01:03:47;99559.05;;;18.97;46.62
80397;BME280;69721;55.894;-3.052;2023-07-31T01:06:17;99560.15;;;18.99;47.31
80397;BME280;69721;55.894;-3.052;2023-07-31T01:08:41;99557.68;;;19.31;46.85
80397;BME280;69721;55.894;-3.052;2023-07-31T01:11:09;99554.18;;;18.88;47.44
80397;BME280;69721;55.894;-3.052;2023-07-31T01:13:28;99555.40;;;18.50;48.28
80397;BME280;69721;55.894;-3.052;2023-07-31T01:15:53;99553.84;;;18.53;48.15
80397;BME280;69721;55.894;-3.052;2023-07-31T01:18:23;99550.96;;;18.87;48.53
80397;BME280;69721;55.894;-3.052;2023-07-31T01:20:56;99545.21;;;18.48;48.82
80397;BME280;69721;55.894;-3.052;2023-07-31T01:23:32;99536.50;;;19.10;47.17
80397;BME280;69721;55.894;-3.052;2023-07-31T01:26:00;99536.07;;;19.01;47.77
80397;BME280;69721;55.894;-3.052;2023-07-31T01:28:09;99530.20;;;19.38;46.98
80397;BME280;69721;55.894;-3.052;2023-07-31T01:30:33;99528.28;;;18.74;47.83
80397;BME280;69721;55.894;-3.052;2023-07-31T01:32:56;99524.91;;;19.27;46.90
80397;BME280;69721;55.894;-3.052;2023-07-31T01:35:21;99521.84;;;19.17;46.65
80397;BME280;69721;55.894;-3.052;2023-07-31T01:37:47;99514.33;;;18.79;48.36
80397;BME280;69721;55.894;-3.052;2023-07-31T01:40:12;99510.35;;;19.05;47.74
80397;BME280;69721;55.894;-3.052;2023-07-31T01:42:37;99510.39;;;19.36;46.90
80397;BME280;69721;55.894;-3.052;2023-07-31T01:45:03;99509.62;;;18.89;48.02
80397;BME280;69721;55.894;-3.052;2023-07-31T01:49:53;99501.37;;;18.32;48.03
80397;BME280;69721;55.894;-3.052;2023-07-31T01:52:19;99498.20;;;19.20;47.71
80397;BME280;69721;55.894;-3.052;2023-07-31T01:54:44;99492.72;;;19.47;46.46
80397;BME280;69721;55.894;-3.052;2023-07-31T01:57:10;99490.63;;;18.67;47.92
80397;BME280;69721;55.894;-3.052;2023-07-31T01:59:35;99489.99;;;19.61;47.06
80397;BME280;69721;55.894;-3.052;2023-07-31T02:02:00;99488.20;;;19.04;47.93
80397;BME280;69721;55.894;-3.052;2023-07-31T02:04:26;99490.19;;;18.91;47.38
80397;BME280;69721;55.894;-3.052;2023-07-31T02:06:53;99489.19;;;19.18;47.45
80397;BME280;69721;55.894;-3.052;2023-07-31T02:09:17;99488.09;;;19.76;47.03
80397;BME280;69721;55.894;-3.052;2023-07-31T02:11:42;99489.50;;;19.19;47.29
80397;BME280;69721;55.894;-3.052;2023-07-31T02:14:08;99491.30;;;18.72;47.81
80397;BME280;69721;55.894;-3.052;2023-07-31T02:16:33;99486.64;;;19.27;47.44
80397;BME280;69721;55.894;-3.052;2023-07-31T02:18:58;99478.87;;;18.82;47.76
80397;BME280;69721;55.894;-3.052;2023-07-31T02:21:24;99479.44;;;18.76;48.11
80397;BME280;69721;55.894;-3.052;2023-07-31T02:23:49;99477.17;;;18.95;48.41
80397;BME280;69721;55.894;-3.052;2023-07-31T02:26:14;99474.45;;;19.28;45.70
80397;BME280;69721;55.894;-3.052;2023-07-31T02:28:42;99474.34;;;19.30;46.98
80397;BME280;69721;55.894;-3.052;2023-07-31T02:31:07;99473.31;;;19.69;45.86
80397;BME280;69721;55.894;-3.052;2023-07-31T02:33:32;99472.55;;;19.45;45.45
80397;BME280;69721;55.894;-3.052;2023-07-31T02:35:57;99472.20;;;19.63;46.47
80397;BME280;69721;55.894;-3.052;2023-07-31T02:38:23;99474.33;;;18.64;48.63
80397;BME280;69721;55.894;-3.052;2023-07-31T02:40:49;99471.22;;;18.28;48.95
80397;BME280;69721;55.894;-3.052;2023-07-31T02:43:14;99466.92;;;18.84;48.29
80397;BME280;69721;55.894;-3.052;2023-07-31T02:45:40;99469.17;;;17.32;50.37
80397;BME280;69721;55.894;-3.052;2023-07-31T02:48:05;99467.89;;;18.27;49.62
80397;BME280;69721;55.894;-3.052;2023-07-31T02:50:30;99465.25;;;19.12;48.25
80397;BME280;69721;55.894;-3.052;2023-07-31T02:52:56;99462.22;;;19.26;47.59
80397;BME280;69721;55.894;-3.052;2023-07-31T02:55:21;99461.56;;;18.22;49.54
80397;BME280;69721;55.894;-3.052;2023-07-31T03:00:12;99463.66;;;17.70;49.81
80397;BME280;69721;55.894;-3.052;2023-07-31T03:02:37;99466.39;;;17.70;50.33
80397;BME280;69721;55.894;-3.052;2023-07-31T03:05:03;99462.64;;;18.14;49.64
80397;BME280;69721;55.894;-3.052;2023-07-31T03:07:28;99462.02;;;18.26;49.37
80397;BME280;69721;55.894;-3.052;2023-07-31T03:09:54;99464.99;;;17.80;50.16
80397;BME280;69721;55.894;-3.052;2023-07-31T03:12:19;99465.04;;;17.83;50.75
80397;BME280;69721;55.894;-3.052;2023-07-31T03:14:44;99461.80;;;16.65;52.65
80397;BME280;69721;55.894;-3.052;2023-07-31T03:17:09;99456.14;;;17.97;50.46
80397;BME280;69721;55.894;-3.052;2023-07-31T03:19:35;99455.46;;;17.67;49.89
80397;BME280;69721;55.894;-3.052;2023-07-31T03:22:00;99456.81;;;16.48;52.35
80397;BME280;69721;55.894;-3.052;2023-07-31T03:24:26;99450.26;;;17.96;50.44
80397;BME280;69721;55.894;-3.052;2023-07-31T03:26:51;99450.86;;;18.13;50.19
80397;BME280;69721;55.894;-3.052;2023-07-31T03:29:17;99449.17;;;18.70;48.85
80397;BME280;69721;55.894;-3.052;2023-07-31T03:31:42;99448.94;;;18.55;48.35
80397;BME280;69721;55.894;-3.052;2023-07-31T03:34:07;99447.60;;;18.99;47.76
80397;BME280;69721;55.894;-3.052;2023-07-31T03:36:33;99450.32;;;18.90;47.84
80397;BME280;69721;55.894;-3.052;2023-07-31T03:38:58;99452.37;;;17.71;49.21
80397;BME280;69721;55.894;-3.052;2023-07-31T03:41:23;99449.87;;;18.15;48.88
80397;BME280;69721;55.894;-3.052;2023-07-31T03:43:50;99444.93;;;19.40;47.33
80397;BME280;69721;55.894;-3.052;2023-07-31T03:46:14;99439.38;;;18.73;48.01
80397;BME280;69721;55.894;-3.052;2023-07-31T03:48:40;99439.18;;;17.32;50.07
80397;BME280;69721;55.894;-3.052;2023-07-31T03:51:05;99438.19;;;17.77;49.86
80397;BME280;69721;55.894;-3.052;2023-07-31T03:53:30;99440.04;;;18.04;49.25
80397;BME280;69721;55.894;-3.052;2023-07-31T03:55:56;99436.73;;;17.72;49.67
80397;BME280;69721;55.894;-3.052;2023-07-31T03:58:21;99434.77;;;18.95;47.80
80397;BME280;69721;55.894;-3.052;2023-07-31T04:00:47;99429.67;;;19.53;46.02
80397;BME280;69721;55.894;-3.052;2023-07-31T04:03:12;99426.88;;;19.62;46.28
80397;BME280;69721;55.894;-3.052;2023-07-31T04:05:38;99426.32;;;19.23;47.19
80397;BME280;69721;55.894;-3.052;2023-07-31T04:10:29;99426.12;;;20.18;45.29
80397;BME280;69721;55.894;-3.052;2023-07-31T04:12:54;99417.52;;;19.92;45.70
80397;BME280;69721;55.894;-3.052;2023-07-31T04:15:20;99410.08;;;18.92;46.82
80397;BME280;69721;55.894;-3.052;2023-07-31T04:17:45;99412.40;;;19.43;47.04
80397;BME280;69721;55.894;-3.052;2023-07-31T04:20:11;99410.99;;;19.93;45.54
80397;BME280;69721;55.894;-3.052;2023-07-31T04:22:36;99407.58;;;19.98;45.89
80397;BME280;69721;55.894;-3.052;2023-07-31T04:25:01;99403.67;;;19.80;45.75
80397;BME280;69721;55.894;-3.052;2023-07-31T04:27:27;99401.59;;;20.08;45.52
80397;BME280;69721;55.894;-3.052;2023-07-31T04:29:52;99402.19;;;20.03;45.56
80397;BME280;69721;55.894;-3.052;2023-07-31T04:32:17;99408.67;;;19.15;46.69
80397;BME280;69721;55.894;-3.052;2023-07-31T04:34:43;99410.40;;;19.75;46.10
80397;BME280;69721;55.894;-3.052;2023-07-31T04:37:08;99409.75;;;19.72;45.70
80397;BME280;69721;55.894;-3.052;2023-07-31T04:39:33;99408.93;;;19.36;46.77
80397;BME280;69721;55.894;-3.052;2023-07-31T04:41:59;99409.02;;;19.94;46.09
80397;BME280;69721;55.894;-3.052;2023-07-31T04:44:24;99405.25;;;19.76;46.29
80397;BME280;69721;55.894;-3.052;2023-07-31T04:46:50;99404.68;;;18.61;47.18
80397;BME280;69721;55.894;-3.052;2023-07-31T04:49:15;99400.73;;;18.56;48.48
80397;BME280;69721;55.894;-3.052;2023-07-31T04:51:40;99398.85;;;19.18;46.93
80397;BME280;69721;55.894;-3.052;2023-07-31T04:54:06;99399.12;;;18.70;47.57
80397;BME280;69721;55.894;-3.052;2023-07-31T04:56:31;99394.52;;;19.30;47.51
80397;BME280;69721;55.894;-3.052;2023-07-31T04:58:56;99392.72;;;19.56;46.69
80397;BME280;69721;55.894;-3.052;2023-07-31T05:01:22;99391.52;;;20.22;45.92
80397;BME280;69721;55.894;-3.052;2023-07-31T05:03:47;99392.64;;;19.48;47.15
80397;BME280;69721;55.894;-3.052;2023-07-31T05:06:12;99388.54;;;19.85;46.34
80397;BME280;69721;55.894;-3.052;2023-07-31T05:08:37;99388.10;;;20.25;46.06
80397;BME280;69721;55.894;-3.052;2023-07-31T05:11:03;99381.43;;;19.73;45.60
80397;BME280;69721;55.894;-3.052;2023-07-31T05:13:28;99385.65;;;19.24;46.86
80397;BME280;69721;55.894;-3.052;2023-07-31T05:15:54;99388.06;;;20.07;46.32
80397;BME280;69721;55.894;-3.052;2023-07-31T05:20:44;99388.02;;;18.43;47.84
80397;BME280;69721;55.894;-3.052;2023-07-31T05:23:10;99382.05;;;18.92;47.73
80397;BME280;69721;55.894;-3.052;2023-07-31T05:25:35;99377.49;;;19.70;46.14
80397;BME280;69721;55.894;-3.052;2023-07-31T05:28:00;99378.91;;;20.22;45.89
80397;BME280;69721;55.894;-3.052;2023-07-31T05:30:26;99373.89;;;19.77;46.71
80397;BME280;69721;55.894;-3.052;2023-07-31T05:32:51;99376.81;;;18.46;48.87
80397;BME280;69721;55.894;-3.052;2023-07-31T05:35:17;99377.17;;;17.79;50.18
80397;BME280;69721;55.894;-3.052;2023-07-31T05:37:42;99374.55;;;19.39;47.44
80397;BME280;69721;55.894;-3.052;2023-07-31T05:40:08;99377.92;;;19.21;47.85
80397;BME280;69721;55.894;-3.052;2023-07-31T05:42:32;99374.20;;;19.84;47.34
80397;BME280;69721;55.894;-3.052;2023-07-31T05:44:58;99367.41;;;19.74;46.96
80397;BME280;69721;55.894;-3.052;2023-07-31T05:47:23;99368.08;;;19.85;46.77
80397;BME280;69721;55.894;-3.052;2023-07-31T05:49:49;99365.73;;;20.11;46.95
80397;BME280;69721;55.894;-3.052;2023-07-31T05:52:14;99358.27;;;20.22;46.02
80397;BME280;69721;55.894;-3.052;2023-07-31T05:54:39;99359.99;;;19.68;46.49
80397;BME280;69721;55.894;-3.052;2023-07-31T05:57:05;99363.33;;;20.54;45.47
80397;BME280;69721;55.894;-3.052;2023-07-31T05:59:30;99360.93;;;20.27;45.00
80397;BME280;69721;55.894;-3.052;2023-07-31T06:01:55;99358.31;;;20.56;45.35
80397;BME280;69721;55.894;-3.052;2023-07-31T06:04:21;99352.00;;;20.77;45.78
80397;BME280;69721;55.894;-3.052;2023-07-31T06:06:46;99350.07;;;19.71;46.82
80397;BME280;69721;55.894;-3.052;2023-07-31T06:09:11;99347.36;;;20.70;46.03
80397;BME280;69721;55.894;-3.052;2023-07-31T06:11:37;99342.88;;;20.66;45.30
80397;BME280;69721;55.894;-3.052;2023-07-31T06:14:02;99340.62;;;20.36;45.98
80397;BME280;69721;55.894;-3.052;2023-07-31T06:16:27;99337.10;;;20.84;45.26
80397;BME280;69721;55.894;-3.052;2023-07-31T06:18:53;99334.86;;;20.84;44.99
80397;BME280;69721;55.894;-3.052;2023-07-31T06:21:18;99337.52;;;20.85;44.97
80397;BME280;69721;55.894;-3.052;2023-07-31T06:23:43;99336.38;;;20.61;45.59
80397;BME280;69721;55.894;-3.052;2023-07-31T06:26:09;99333.98;;;20.00;46.73
80397;BME280;69721;55.894;-3.052;2023-07-31T06:31:00;99330.16;;;20.99;45.39
80397;BME280;69721;55.894;-3.052;2023-07-31T06:33:25;99328.15;;;20.85;45.56
80397;BME280;69721;55.894;-3.052;2023-07-31T06:35:51;99327.29;;;20.62;45.89
80397;BME280;69721;55.894;-3.052;2023-07-31T06:38:22;99325.74;;;20.50;45.97
80397;BME280;69721;55.894;-3.052;2023-07-31T06:40:42;99323.59;;;20.05;46.58
80397;BME280;69721;55.894;-3.052;2023-07-31T06:43:07;99320.57;;;19.37;47.64
80397;BME280;69721;55.894;-3.052;2023-07-31T06:45:33;99321.02;;;19.18;48.21
80397;BME280;69721;55.894;-3.052;2023-07-31T06:47:58;99321.10;;;18.81;50.13
80397;BME280;69721;55.894;-3.052;2023-07-31T06:50:24;99313.76;;;18.78;49.40
80397;BME280;69721;55.894;-3.052;2023-07-31T06:52:48;99310.29;;;18.71;50.40
80397;BME280;69721;55.894;-3.052;2023-07-31T06:55:18;99310.67;;;18.04;52.29
80397;BME280;69721;55.894;-3.052;2023-07-31T06:57:39;99308.12;;;17.23;52.20
80397;BME280;69721;55.894;-3.052;2023-07-31T07:00:06;99307.56;;;17.57;53.63
80397;BME280;69721;55.894;-3.052;2023-07-31T07:02:30;99307.49;;;17.89;53.22
80397;BME280;69721;55.894;-3.052;2023-07-31T07:04:55;99306.17;;;17.36;54.51
80397;BME280;69721;55.894;-3.052;2023-07-31T07:07:20;99306.89;;;17.09;55.10
80397;BME280;69721;55.894;-3.052;2023-07-31T07:09:46;99299.50;;;17.91;54.11
80397;BME280;69721;55.894;-3.052;2023-07-31T07:12:11;99297.62;;;17.40;55.00
80397;BME280;69721;55.894;-3.052;2023-07-31T07:14:37;99292.24;;;17.47;53.90
80397;BME280;69721;55.894;-3.052;2023-07-31T07:17:02;99291.55;;;18.32;53.67
80397;BME280;69721;55.894;-3.052;2023-07-31T07:19:27;99284.02;;;17.62;54.20
80397;BME280;69721;55.894;-3.052;2023-07-31T07:21:53;99280.18;;;18.89;51.86
80397;BME280;69721;55.894;-3.052;2023-07-31T07:24:18;99278.48;;;19.67;49.99
80397;BME280;69721;55.894;-3.052;2023-07-31T07:26:43;99274.56;;;20.29;49.68
80397;BME280;69721;55.894;-3.052;2023-07-31T07:29:09;99275.20;;;20.57;48.94
80397;BME280;69721;55.894;-3.052;2023-07-31T07:31:34;99273.91;;;20.45;49.26
80397;BME280;69721;55.894;-3.052;2023-07-31T07:33:59;99272.20;;;19.28;51.54
80397;BME280;69721;55.894;-3.052;2023-07-31T07:36:25;99266.93;;;19.59;51.03
80397;BME280;69721;55.894;-3.052;2023-07-31T07:41:15;99257.86;;;19.04;52.09
80397;BME280;69721;55.894;-3.052;2023-07-31T07:43:41;99257.83;;;18.72;53.09
80397;BME280;69721;55.894;-3.052;2023-07-31T07:46:06;99255.15;;;19.77;51.38
80397;BME280;69721;55.894;-3.052;2023-07-31T07:48:32;99255.96;;;19.39;52.49
80397;BME280;69721;55.894;-3.052;2023-07-31T07:50:57;99258.20;;;19.49;52.19
80397;BME280;69721;55.894;-3.052;2023-07-31T07:53:22;99256.93;;;19.88;49.83
80397;BME280;69721;55.894;-3.052;2023-07-31T07:55:48;99252.44;;;19.78;51.15
80397;BME280;69721;55.894;-3.052;2023-07-31T07:58:13;99249.71;;;19.91;50.81
80397;BME280;69721;55.894;-3.052;2023-07-31T08:00:41;99241.41;;;21.18;49.54
80397;BME280;69721;55.894;-3.052;2023-07-31T08:03:04;99244.08;;;20.56;49.47
80397;BME280;69721;55.894;-3.052;2023-07-31T08:05:29;99237.68;;;20.76;49.15
80397;BME280;69721;55.894;-3.052;2023-07-31T08:07:54;99236.36;;;20.73;48.40
80397;BME280;69721;55.894;-3.052;2023-07-31T08:10:20;99230.29;;;20.92;48.85
80397;BME280;69721;55.894;-3.052;2023-07-31T08:12:45;99235.51;;;20.35;49.67
80397;BME280;69721;55.894;-3.052;2023-07-31T08:15:10;99233.39;;;18.68;53.35
80397;BME280;69721;55.894;-3.052;2023-07-31T08:17:36;99231.05;;;19.60;51.03
80397;BME280;69721;55.894;-3.052;2023-07-31T08:20:01;99226.39;;;19.49;51.67
80397;BME280;69721;55.894;-3.052;2023-07-31T08:22:26;99226.34;;;19.68;51.09
80397;BME280;69721;55.894;-3.052;2023-07-31T08:24:52;99225.42;;;20.55;50.57
80397;BME280;69721;55.894;-3.052;2023-07-31T08:27:17;99223.47;;;18.49;53.68
80397;BME280;69721;55.894;-3.052;2023-07-31T08:29:42;99225.03;;;18.82;52.39
80397;BME280;69721;55.894;-3.052;2023-07-31T08:32:08;99220.99;;;18.37;53.24
80397;BME280;69721;55.894;-3.052;2023-07-31T08:34:33;99221.06;;;19.61;51.57
80397;BME280;69721;55.894;-3.052;2023-07-31T08:36:58;99219.37;;;18.35;53.31
80397;BME280;69721;55.894;-3.052;2023-07-31T08:39:24;99220.68;;;17.17;56.89
80397;BME280;69721;55.894;-3.052;2023-07-31T08:41:49;99221.53;;;18.47;56.07
80397;BME280;69721;55.894;-3.052;2023-07-31T08:44:15;99218.65;;;17.46;57.42
80397;BME280;69721;55.894;-3.052;2023-07-31T08:46:40;99216.63;;;18.75;54.73
80397;BME280;69721;55.894;-3.052;2023-07-31T08:51:31;99216.31;;;19.62;53.66
80397;BME280;69721;55.894;-3.052;2023-07-31T08:53:56;99210.54;;;19.72;52.29
80397;BME280;69721;55.894;-3.052;2023-07-31T08:56:21;99209.57;;;19.05;54.87
80397;BME280;69721;55.894;-3.052;2023-07-31T08:58:47;99203.94;;;19.47;53.73
80397;BME280;69721;55.894;-3.052;2023-07-31T09:01:13;99204.02;;;20.17;52.23
80397;BME280;69721;55.894;-3.052;2023-07-31T09:03:39;99200.79;;;19.91;51.69
80397;BME280;69721;55.894;-3.052;2023-07-31T09:06:03;99195.41;;;21.08;50.45
80397;BME280;69721;55.894;-3.052;2023-07-31T09:08:30;99193.06;;;20.89;50.89
80397;BME280;69721;55.894;-3.052;2023-07-31T09:10:53;99193.65;;;20.34;50.42
80397;BME280;69721;55.894;-3.052;2023-07-31T09:13:19;99187.98;;;21.09;50.73
80397;BME280;69721;55.894;-3.052;2023-07-31T09:15:45;99186.01;;;20.84;50.27
80397;BME280;69721;55.894;-3.052;2023-07-31T09:18:09;99184.97;;;20.84;50.79
80397;BME280;69721;55.894;-3.052;2023-07-31T09:20:36;99181.59;;;21.61;50.30
80397;BME280;69721;55.894;-3.052;2023-07-31T09:23:06;99179.45;;;21.08;49.37
80397;BME280;69721;55.894;-3.052;2023-07-31T09:25:26;99179.82;;;20.09;51.75
80397;BME280;69721;55.894;-3.052;2023-07-31T09:27:53;99181.29;;;19.88;52.44
80397;BME280;69721;55.894;-3.052;2023-07-31T09:30:18;99169.18;;;21.03;50.31
80397;BME280;69721;55.894;-3.052;2023-07-31T09:32:43;99169.62;;;20.23;52.02
80397;BME280;69721;55.894;-3.052;2023-07-31T09:35:14;99164.02;;;21.42;50.25
80397;BME280;69721;55.894;-3.052;2023-07-31T09:37:33;99166.12;;;21.38;50.18
80397;BME280;69721;55.894;-3.052;2023-07-31T09:39:58;99163.78;;;21.33;50.28
80397;BME280;69721;55.894;-3.052;2023-07-31T09:42:25;99159.08;;;21.15;50.16
80397;BME280;69721;55.894;-3.052;2023-07-31T09:44:49;99160.85;;;21.39;49.16
80397;BME280;69721;55.894;-3.052;2023-07-31T09:47:22;99158.19;;;21.41;49.30
80397;BME280;69721;55.894;-3.052;2023-07-31T09:49:45;99155.81;;;21.14;49.60
80397;BME280;69721;55.894;-3.052;2023-07-31T09:52:11;99150.11;;;21.56;49.82
80397;BME280;69721;55.894;-3.052;2023-07-31T09:54:30;99148.14;;;21.83;48.51
80397;BME280;69721;55.894;-3.052;2023-07-31T09:56:57;99140.84;;;22.04;48.81
80397;BME280;69721;55.894;-3.052;2023-07-31T10:01:47;99136.59;;;22.26;48.24
80397;BME280;69721;55.894;-3.052;2023-07-31T10:04:13;99132.91;;;21.98;47.53
80397;BME280;69721;55.894;-3.052;2023-07-31T10:06:38;99132.78;;;21.07;50.08
80397;BME280;69721;55.894;-3.052;2023-07-31T10:09:06;99129.09;;;21.48;49.64
80397;BME280;69721;55.894;-3.052;2023-07-31T10:11:29;99121.75;;;21.22;49.77
80397;BME280;69721;55.894;-3.052;2023-07-31T10:13:54;99119.80;;;22.14;48.84
80397;BME280;69721;55.894;-3.052;2023-07-31T10:16:18;99114.39;;;22.37;47.88
80397;BME280;69721;55.894;-3.052;2023-07-31T10:18:44;99114.62;;;22.63;46.63
80397;BME280;69721;55.894;-3.052;2023-07-31T10:21:11;99116.18;;;21.65;49.61
80397;BME280;69721;55.894;-3.052;2023-07-31T10:23:35;99115.40;;;20.91;50.85
80397;BME280;69721;55.894;-3.052;2023-07-31T10:26:01;99109.61;;;22.31;49.02
80397;BME280;69721;55.894;-3.052;2023-07-31T10:28:26;99109.51;;;23.42;48.49
80397;BME280;69721;55.894;-3.052;2023-07-31T10:30:52;99111.36;;;23.49;47.43
80397;BME280;69721;55.894;-3.052;2023-07-31T10:33:17;99108.36;;;20.61;53.09
80397;BME280;69721;55.894;-3.052;2023-07-31T10:35:42;99110.33;;;21.68;52.22
80397;BME280;69721;55.894;-3.052;2023-07-31T10:38:10;99109.80;;;20.48;53.88
80397;BME280;69721;55.894;-3.052;2023-07-31T10:40:32;99114.05;;;20.39;55.16
80397;BME280;69721;55.894;-3.052;2023-07-31T10:42:58;99115.98;;;21.22;55.01
80397;BME280;69721;55.894;-3.052;2023-07-31T10:45:25;99115.68;;;20.70;54.50
80397;BME280;69721;55.894;-3.052;2023-07-31T10:47:48;99122.20;;;21.61;53.78
80397;BME280;69721;55.894;-3.052;2023-07-31T10:50:18;99116.72;;;21.07;54.59
80397;BME280;69721;55.894;-3.052;2023-07-31T10:52:39;99118.80;;;21.06;54.08
80397;BME280;69721;55.894;-3.052;2023-07-31T10:55:14;99118.51;;;20.94;53.52
80397;BME280;69721;55.894;-3.052;2023-07-31T10:57:35;99117.45;;;20.83;54.70
80397;BME280;69721;55.894;-3.052;2023-07-31T11:02:26;99114.46;;;19.82;56.52
80397;BME280;69721;55.894;-3.052;2023-07-31T11:07:12;99101.22;;;20.51;54.17
80397;BME280;69721;55.894;-3.052;2023-07-31T11:09:37;99099.32;;;20.49;54.79
80397;BME280;69721;55.894;-3.052;2023-07-31T11:12:03;99099.44;;;22.00;51.80
80397;BME280;69721;55.894;-3.052;2023-07-31T11:14:28;99092.81;;;22.58;51.08
80397;BME280;69721;55.894;-3.052;2023-07-31T11:16:53;99095.57;;;22.51;50.07
80397;BME280;69721;55.894;-3.052;2023-07-31T11:19:23;99094.72;;;22.98;50.17
80397;BME280;69721;55.894;-3.052;2023-07-31T11:21:44;99090.07;;;23.42;49.05
80397;BME280;69721;55.894;-3.052;2023-07-31T11:24:12;99085.25;;;22.84;49.61
80397;BME280;69721;55.894;-3.052;2023-07-31T11:26:35;99081.18;;;22.77;48.85
80397;BME280;69721;55.894;-3.052;2023-07-31T11:29:00;99081.83;;;23.06;49.14
80397;BME280;69721;55.894;-3.052;2023-07-31T11:31:26;99082.21;;;22.08;49.58
80397;BME280;69721;55.894;-3.052;2023-07-31T11:36:17;99089.82;;;19.94;52.96
80397;BME280;69721;55.894;-3.052;2023-07-31T11:38:42;99089.35;;;19.27;54.80
80397;BME280;69721;55.894;-3.052;2023-07-31T11:41:07;99087.69;;;20.21;53.52
80397;BME280;69721;55.894;-3.052;2023-07-31T11:43:32;99086.38;;;19.85;54.80
80397;BME280;69721;55.894;-3.052;2023-07-31T11:45:59;99078.62;;;19.86;54.61
80397;BME280;69721;55.894;-3.052;2023-07-31T11:48:25;99077.90;;;20.39;53.21
80397;BME280;69721;55.894;-3.052;2023-07-31T11:50:50;99082.13;;;21.33;52.08
80397;BME280;69721;55.894;-3.052;2023-07-31T11:53:14;99078.88;;;21.67;51.85
80397;BME280;69721;55.894;-3.052;2023-07-31T11:55:39;99076.45;;;22.53;49.73
80397;BME280;69721;55.894;-3.052;2023-07-31T11:58:04;99077.64;;;21.80;50.60
80397;BME280;69721;55.894;-3.052;2023-07-31T12:00:30;99078.07;;;22.51;48.94
80397;BME280;69721;55.894;-3.052;2023-07-31T12:02:55;99073.32;;;22.76;49.78
80397;BME280;69721;55.894;-3.052;2023-07-31T12:05:22;99076.33;;;22.19;50.57
80397;BME280;69721;55.894;-3.052;2023-07-31T12:07:48;99070.62;;;22.17;50.09
80397;BME280;69721;55.894;-3.052;2023-07-31T12:10:11;99068.16;;;20.72;51.89
80397;BME280;69721;55.894;-3.052;2023-07-31T12:12:36;99066.23;;;20.48;52.53
80397;BME280;69721;55.894;-3.052;2023-07-31T12:15:01;99063.47;;;21.27;51.42
80397;BME280;69721;55.894;-3.052;2023-07-31T12:17:27;99063.24;;;20.77;52.51
80397;BME280;69721;55.894;-3.052;2023-07-31T12:19:52;99059.15;;;20.31;52.64
80397;BME280;69721;55.894;-3.052;2023-07-31T12:22:17;99065.84;;;20.62;52.59
80397;BME280;69721;55.894;-3.052;2023-07-31T12:24:43;99090.91;;;17.42;60.20
80397;BME280;69721;55.894;-3.052;2023-07-31T12:27:09;99091.06;;;15.61;67.10
80397;BME280;69721;55.894;-3.052;2023-07-31T12:29:35;99085.24;;;16.70;65.94
80397;BME280;69721;55.894;-3.052;2023-07-31T12:31:59;99076.77;;;17.75;61.82
80397;BME280;69721;55.894;-3.052;2023-07-31T12:34:24;99075.73;;;18.74;59.44
80397;BME280;69721;55.894;-3.052;2023-07-31T12:36:49;99073.31;;;19.53;55.92
80397;BME280;69721;55.894;-3.052;2023-07-31T12:39:15;99070.00;;;20.08;54.28
80397;BME280;69721;55.894;-3.052;2023-07-31T12:41:41;99065.94;;;21.16;54.01
80397;BME280;69721;55.894;-3.052;2023-07-31T12:44:06;99063.49;;;21.67;52.02
80397;BME280;69721;55.894;-3.052;2023-07-31T12:46:31;99059.04;;;22.26;49.99
80397;BME280;69721;55.894;-3.052;2023-07-31T12:48:57;99062.64;;;22.38;49.88
80397;BME280;69721;55.894;-3.052;2023-07-31T12:51:22;99058.34;;;22.35;50.13
80397;BME280;69721;55.894;-3.052;2023-07-31T12:53:47;99059.91;;;21.98;49.91
80397;BME280;69721;55.894;-3.052;2023-07-31T12:56:13;99062.18;;;21.40;51.79
80397;BME280;69721;55.894;-3.052;2023-07-31T12:58:38;99063.56;;;18.83;54.31
80397;BME280;69721;55.894;-3.052;2023-07-31T13:01:03;99063.15;;;18.57;57.14
80397;BME280;69721;55.894;-3.052;2023-07-31T13:03:29;99058.59;;;18.01;57.25
80397;BME280;69721;55.894;-3.052;2023-07-31T13:05:54;99064.08;;;16.75;62.02
80397;BME280;69721;55.894;-3.052;2023-07-31T13:08:19;99064.23;;;15.69;66.77